sensor_id;sensor_type;location;lat;lon;timestamp;P1;durP1;ratioP1;P2;durP2;ratioP2
47804;SDS011;33568;45.286;9.900;2023-02-03T00:01:37;12.63;;;8.50;;
47804;SDS011;33568;45.286;9.900;2023-02-03T00:04:03;13.15;;;8.15;;
47804;SDS011;33568;45.286;9.900;2023-02-03T00:06:30;14.85;;;8.45;;
47804;SDS011;33568;45.286;9.900;2023-02-03T00:08:57;22.75;;;8.02;;
47804;SDS011;33568;45.286;9.900;2023-02-03T00:11:28;13.82;;;8.88;;
47804;SDS011;33568;45.286;9.900;2023-02-03T00:13:55;17.27;;;8.45;;
47804;SDS011;33568;45.286;9.900;2023-02-03T00:16:22;13.02;;;9.02;;
47804;SDS011;33568;45.286;9.900;2023-02-03T00:18:48;20.20;;;8.88;;
47804;SDS011;33568;45.286;9.900;2023-02-03T00:21:15;15.05;;;9.13;;
47804;SDS011;33568;45.286;9.900;2023-02-03T00:23:42;14.63;;;8.55;;
47804;SDS011;33568;45.286;9.900;2023-02-03T00:26:10;16.80;;;8.57;;
47804;SDS011;33568;45.286;9.900;2023-02-03T00:28:40;14.63;;;9.45;;
47804;SDS011;33568;45.286;9.900;2023-02-03T00:31:13;20.42;;;9.88;;
47804;SDS011;33568;45.286;9.900;2023-02-03T00:33:53;16.58;;;9.38;;
47804;SDS011;33568;45.286;9.900;2023-02-03T00:36:21;15.45;;;9.88;;
47804;SDS011;33568;45.286;9.900;2023-02-03T00:38:48;16.58;;;10.18;;
47804;SDS011;33568;45.286;9.900;2023-02-03T00:43:41;14.15;;;9.35;;
47804;SDS011;33568;45.286;9.900;2023-02-03T00:46:08;14.95;;;9.98;;
47804;SDS011;33568;45.286;9.900;2023-02-03T00:51:01;15.52;;;8.90;;
47804;SDS011;33568;45.286;9.900;2023-02-03T00:53:27;17.90;;;10.88;;
47804;SDS011;33568;45.286;9.900;2023-02-03T00:58:21;15.63;;;10.30;;
47804;SDS011;33568;45.286;9.900;2023-02-03T01:03:15;15.23;;;10.15;;
47804;SDS011;33568;45.286;9.900;2023-02-03T01:05:41;15.75;;;11.00;;
47804;SDS011;33568;45.286;9.900;2023-02-03T01:08:07;16.15;;;9.95;;
47804;SDS011;33568;45.286;9.900;2023-02-03T01:10:34;13.73;;;9.25;;
47804;SDS011;33568;45.286;9.900;2023-02-03T01:13:03;16.90;;;10.27;;
47804;SDS011;33568;45.286;9.900;2023-02-03T01:15:30;14.63;;;9.60;;
47804;SDS011;33568;45.286;9.900;2023-02-03T01:17:56;16.77;;;10.70;;
47804;SDS011;33568;45.286;9.900;2023-02-03T01:20:23;15.00;;;10.25;;
47804;SDS011;33568;45.286;9.900;2023-02-03T01:22:50;14.10;;;10.13;;
47804;SDS011;33568;45.286;9.900;2023-02-03T01:25:16;16.15;;;9.68;;
47804;SDS011;33568;45.286;9.900;2023-02-03T01:27:42;17.42;;;10.63;;
47804;SDS011;33568;45.286;9.900;2023-02-03T01:32:35;15.27;;;10.02;;
47804;SDS011;33568;45.286;9.900;2023-02-03T01:35:03;16.23;;;10.90;;
47804;SDS011;33568;45.286;9.900;2023-02-03T01:39:56;25.77;;;10.80;;
47804;SDS011;33568;45.286;9.900;2023-02-03T01:42:22;16.92;;;10.82;;
47804;SDS011;33568;45.286;9.900;2023-02-03T01:49:59;20.25;;;9.75;;
47804;SDS011;33568;45.286;9.900;2023-02-03T01:52:44;14.00;;;10.00;;
47804;SDS011;33568;45.286;9.900;2023-02-03T01:55:15;17.65;;;10.02;;
47804;SDS011;33568;45.286;9.900;2023-02-03T01:57:53;13.93;;;9.30;;
47804;SDS011;33568;45.286;9.900;2023-02-03T02:00:24;13.60;;;9.23;;
47804;SDS011;33568;45.286;9.900;2023-02-03T02:02:54;17.30;;;10.25;;
47804;SDS011;33568;45.286;9.900;2023-02-03T02:05:27;17.25;;;10.02;;
47804;SDS011;33568;45.286;9.900;2023-02-03T02:08:15;16.98;;;10.15;;
47804;SDS011;33568;45.286;9.900;2023-02-03T02:10:44;13.32;;;8.82;;
47804;SDS011;33568;45.286;9.900;2023-02-03T02:13:11;14.32;;;9.48;;
47804;SDS011;33568;45.286;9.900;2023-02-03T02:15:49;14.50;;;9.25;;
47804;SDS011;33568;45.286;9.900;2023-02-03T02:18:24;14.65;;;9.90;;
47804;SDS011;33568;45.286;9.900;2023-02-03T02:40:32;15.45;;;8.23;;
47804;SDS011;33568;45.286;9.900;2023-02-03T02:43:22;14.27;;;7.95;;
47804;SDS011;33568;45.286;9.900;2023-02-03T02:45:59;17.73;;;8.52;;
47804;SDS011;33568;45.286;9.900;2023-02-03T02:48:35;11.80;;;8.68;;
47804;SDS011;33568;45.286;9.900;2023-02-03T02:51:35;15.02;;;8.13;;
47804;SDS011;33568;45.286;9.900;2023-02-03T02:54:05;21.30;;;8.63;;
47804;SDS011;33568;45.286;9.900;2023-02-03T02:56:35;15.55;;;8.88;;
47804;SDS011;33568;45.286;9.900;2023-02-03T02:59:04;18.08;;;7.70;;
47804;SDS011;33568;45.286;9.900;2023-02-03T03:01:32;14.00;;;8.85;;
47804;SDS011;33568;45.286;9.900;2023-02-03T03:06:41;11.20;;;8.25;;
47804;SDS011;33568;45.286;9.900;2023-02-03T03:09:13;17.88;;;8.75;;
47804;SDS011;33568;45.286;9.900;2023-02-03T03:11:44;15.13;;;8.75;;
47804;SDS011;33568;45.286;9.900;2023-02-03T03:14:15;19.80;;;8.10;;
47804;SDS011;33568;45.286;9.900;2023-02-03T03:16:46;14.00;;;8.35;;
47804;SDS011;33568;45.286;9.900;2023-02-03T03:19:23;16.08;;;7.53;;
47804;SDS011;33568;45.286;9.900;2023-02-03T03:21:56;14.68;;;7.82;;
47804;SDS011;33568;45.286;9.900;2023-02-03T03:24:28;15.20;;;8.45;;
47804;SDS011;33568;45.286;9.900;2023-02-03T03:28:00;17.95;;;8.63;;
47804;SDS011;33568;45.286;9.900;2023-02-03T03:30:08;12.35;;;8.05;;
47804;SDS011;33568;45.286;9.900;2023-02-03T03:32:46;18.08;;;7.80;;
47804;SDS011;33568;45.286;9.900;2023-02-03T03:35:13;10.73;;;7.88;;
47804;SDS011;33568;45.286;9.900;2023-02-03T03:37:42;14.43;;;7.90;;
47804;SDS011;33568;45.286;9.900;2023-02-03T03:40:18;12.68;;;7.05;;
47804;SDS011;33568;45.286;9.900;2023-02-03T03:42:58;13.40;;;7.73;;
47804;SDS011;33568;45.286;9.900;2023-02-03T03:45:33;16.38;;;8.25;;
47804;SDS011;33568;45.286;9.900;2023-02-03T03:51:38;18.05;;;8.00;;
47804;SDS011;33568;45.286;9.900;2023-02-03T03:54:06;14.82;;;8.13;;
47804;SDS011;33568;45.286;9.900;2023-02-03T03:56:38;18.77;;;8.73;;
47804;SDS011;33568;45.286;9.900;2023-02-03T03:59:20;12.15;;;7.55;;
47804;SDS011;33568;45.286;9.900;2023-02-03T04:01:49;13.15;;;8.00;;
47804;SDS011;33568;45.286;9.900;2023-02-03T04:04:16;13.10;;;7.68;;
47804;SDS011;33568;45.286;9.900;2023-02-03T04:06:44;12.07;;;8.10;;
47804;SDS011;33568;45.286;9.900;2023-02-03T04:09:10;17.77;;;8.25;;
47804;SDS011;33568;45.286;9.900;2023-02-03T04:14:22;14.07;;;7.82;;
47804;SDS011;33568;45.286;9.900;2023-02-03T04:16:48;11.57;;;8.48;;
47804;SDS011;33568;45.286;9.900;2023-02-03T04:19:15;13.73;;;8.05;;
47804;SDS011;33568;45.286;9.900;2023-02-03T04:21:41;17.67;;;8.43;;
47804;SDS011;33568;45.286;9.900;2023-02-03T04:24:07;14.50;;;8.15;;
47804;SDS011;33568;45.286;9.900;2023-02-03T04:29:01;23.92;;;9.88;;
47804;SDS011;33568;45.286;9.900;2023-02-03T04:31:27;13.63;;;8.25;;
47804;SDS011;33568;45.286;9.900;2023-02-03T04:33:54;18.45;;;7.88;;
47804;SDS011;33568;45.286;9.900;2023-02-03T04:38:49;12.15;;;7.50;;
47804;SDS011;33568;45.286;9.900;2023-02-03T04:41:16;13.18;;;8.50;;
47804;SDS011;33568;45.286;9.900;2023-02-03T04:46:09;20.95;;;8.35;;
47804;SDS011;33568;45.286;9.900;2023-02-03T04:48:35;15.07;;;9.30;;
47804;SDS011;33568;45.286;9.900;2023-02-03T04:53:29;13.25;;;8.73;;
47804;SDS011;33568;45.286;9.900;2023-02-03T04:55:57;15.68;;;10.02;;
47804;SDS011;33568;45.286;9.900;2023-02-03T04:58:24;13.50;;;9.07;;
47804;SDS011;33568;45.286;9.900;2023-02-03T05:00:53;16.90;;;8.57;;
47804;SDS011;33568;45.286;9.900;2023-02-03T05:03:20;13.18;;;8.70;;
47804;SDS011;33568;45.286;9.900;2023-02-03T05:08:14;12.95;;;8.02;;
47804;SDS011;33568;45.286;9.900;2023-02-03T05:10:40;12.43;;;8.07;;
47804;SDS011;33568;45.286;9.900;2023-02-03T05:13:07;14.15;;;9.70;;
47804;SDS011;33568;45.286;9.900;2023-02-03T05:15:33;14.40;;;10.05;;
47804;SDS011;33568;45.286;9.900;2023-02-03T05:17:59;17.80;;;9.50;;
47804;SDS011;33568;45.286;9.900;2023-02-03T05:20:26;16.67;;;10.23;;
47804;SDS011;33568;45.286;9.900;2023-02-03T05:22:52;20.55;;;10.68;;
47804;SDS011;33568;45.286;9.900;2023-02-03T05:25:19;20.50;;;10.85;;
47804;SDS011;33568;45.286;9.900;2023-02-03T05:27:46;18.85;;;10.25;;
47804;SDS011;33568;45.286;9.900;2023-02-03T05:30:12;13.27;;;9.80;;
47804;SDS011;33568;45.286;9.900;2023-02-03T05:32:39;16.23;;;11.73;;
47804;SDS011;33568;45.286;9.900;2023-02-03T05:35:05;19.02;;;9.93;;
47804;SDS011;33568;45.286;9.900;2023-02-03T05:37:32;15.60;;;10.93;;
47804;SDS011;33568;45.286;9.900;2023-02-03T05:39:58;19.05;;;11.15;;
47804;SDS011;33568;45.286;9.900;2023-02-03T05:42:48;17.83;;;11.18;;
47804;SDS011;33568;45.286;9.900;2023-02-03T05:45:15;16.35;;;11.18;;
47804;SDS011;33568;45.286;9.900;2023-02-03T05:47:41;15.93;;;11.38;;
47804;SDS011;33568;45.286;9.900;2023-02-03T05:50:08;22.60;;;11.65;;
47804;SDS011;33568;45.286;9.900;2023-02-03T05:52:34;18.63;;;11.55;;
47804;SDS011;33568;45.286;9.900;2023-02-03T05:55:01;16.98;;;11.65;;
47804;SDS011;33568;45.286;9.900;2023-02-03T05:59:53;19.67;;;12.23;;
47804;SDS011;33568;45.286;9.900;2023-02-03T06:02:20;20.92;;;12.55;;
47804;SDS011;33568;45.286;9.900;2023-02-03T06:04:46;21.20;;;12.40;;
47804;SDS011;33568;45.286;9.900;2023-02-03T06:07:12;24.30;;;14.18;;
47804;SDS011;33568;45.286;9.900;2023-02-03T06:09:39;21.30;;;13.20;;
47804;SDS011;33568;45.286;9.900;2023-02-03T06:12:05;27.70;;;13.18;;
47804;SDS011;33568;45.286;9.900;2023-02-03T06:17:00;21.67;;;14.00;;
47804;SDS011;33568;45.286;9.900;2023-02-03T06:19:27;24.98;;;14.23;;
47804;SDS011;33568;45.286;9.900;2023-02-03T06:21:53;22.80;;;14.95;;
47804;SDS011;33568;45.286;9.900;2023-02-03T06:24:19;22.15;;;14.98;;
47804;SDS011;33568;45.286;9.900;2023-02-03T06:26:46;29.15;;;17.95;;
47804;SDS011;33568;45.286;9.900;2023-02-03T06:31:38;27.85;;;14.32;;
47804;SDS011;33568;45.286;9.900;2023-02-03T06:34:05;25.20;;;17.08;;
47804;SDS011;33568;45.286;9.900;2023-02-03T06:36:31;23.20;;;14.70;;
47804;SDS011;33568;45.286;9.900;2023-02-03T06:38:57;32.13;;;16.70;;
47804;SDS011;33568;45.286;9.900;2023-02-03T06:41:24;25.10;;;15.98;;
47804;SDS011;33568;45.286;9.900;2023-02-03T06:43:55;32.22;;;16.88;;
47804;SDS011;33568;45.286;9.900;2023-02-03T06:48:47;32.13;;;17.25;;
47804;SDS011;33568;45.286;9.900;2023-02-03T06:51:14;45.17;;;18.25;;
47804;SDS011;33568;45.286;9.900;2023-02-03T06:53:40;36.38;;;20.33;;
47804;SDS011;33568;45.286;9.900;2023-02-03T06:58:33;54.03;;;34.83;;
47804;SDS011;33568;45.286;9.900;2023-02-03T07:00:59;45.00;;;30.50;;
47804;SDS011;33568;45.286;9.900;2023-02-03T07:05:52;43.38;;;29.05;;
47804;SDS011;33568;45.286;9.900;2023-02-03T07:08:18;57.65;;;35.38;;
47804;SDS011;33568;45.286;9.900;2023-02-03T07:10:45;50.80;;;33.92;;
47804;SDS011;33568;45.286;9.900;2023-02-03T07:15:37;53.67;;;31.52;;
47804;SDS011;33568;45.286;9.900;2023-02-03T07:18:04;61.25;;;34.10;;
47804;SDS011;33568;45.286;9.900;2023-02-03T07:20:30;61.72;;;35.85;;
47804;SDS011;33568;45.286;9.900;2023-02-03T07:22:57;69.32;;;38.63;;
47804;SDS011;33568;45.286;9.900;2023-02-03T07:25:24;75.10;;;41.78;;
47804;SDS011;33568;45.286;9.900;2023-02-03T07:27:51;84.78;;;51.30;;
47804;SDS011;33568;45.286;9.900;2023-02-03T07:30:18;99.35;;;53.30;;
47804;SDS011;33568;45.286;9.900;2023-02-03T07:32:46;105.30;;;62.47;;
47804;SDS011;33568;45.286;9.900;2023-02-03T07:35:16;110.13;;;65.57;;
47804;SDS011;33568;45.286;9.900;2023-02-03T07:37:42;120.57;;;70.07;;
47804;SDS011;33568;45.286;9.900;2023-02-03T07:40:10;122.47;;;70.95;;
47804;SDS011;33568;45.286;9.900;2023-02-03T07:42:39;118.97;;;72.18;;
47804;SDS011;33568;45.286;9.900;2023-02-03T07:45:08;119.35;;;75.63;;
47804;SDS011;33568;45.286;9.900;2023-02-03T07:47:35;117.10;;;71.28;;
47804;SDS011;33568;45.286;9.900;2023-02-03T07:50:02;111.55;;;69.65;;
47804;SDS011;33568;45.286;9.900;2023-02-03T07:52:29;113.97;;;66.43;;
47804;SDS011;33568;45.286;9.900;2023-02-03T07:54:55;109.90;;;65.78;;
47804;SDS011;33568;45.286;9.900;2023-02-03T07:57:22;106.32;;;67.68;;
47804;SDS011;33568;45.286;9.900;2023-02-03T08:02:15;111.72;;;68.15;;
47804;SDS011;33568;45.286;9.900;2023-02-03T08:04:41;121.63;;;73.93;;
47804;SDS011;33568;45.286;9.900;2023-02-03T08:07:07;136.10;;;79.30;;
47804;SDS011;33568;45.286;9.900;2023-02-03T08:09:34;146.73;;;87.43;;
47804;SDS011;33568;45.286;9.900;2023-02-03T08:12:00;151.05;;;90.22;;
47804;SDS011;33568;45.286;9.900;2023-02-03T08:16:53;156.38;;;88.95;;
47804;SDS011;33568;45.286;9.900;2023-02-03T08:19:19;150.60;;;92.13;;
47804;SDS011;33568;45.286;9.900;2023-02-03T08:21:46;146.88;;;92.82;;
47804;SDS011;33568;45.286;9.900;2023-02-03T08:24:12;151.73;;;92.63;;
47804;SDS011;33568;45.286;9.900;2023-02-03T08:26:39;166.20;;;98.88;;
47804;SDS011;33568;45.286;9.900;2023-02-03T08:31:32;186.73;;;109.50;;
47804;SDS011;33568;45.286;9.900;2023-02-03T08:36:25;199.82;;;122.05;;
47804;SDS011;33568;45.286;9.900;2023-02-03T08:41:17;227.70;;;130.07;;
47804;SDS011;33568;45.286;9.900;2023-02-03T08:43:44;231.18;;;136.68;;
47804;SDS011;33568;45.286;9.900;2023-02-03T08:46:11;226.10;;;139.63;;
47804;SDS011;33568;45.286;9.900;2023-02-03T08:48:38;230.30;;;137.82;;
47804;SDS011;33568;45.286;9.900;2023-02-03T08:51:11;221.10;;;138.95;;
47804;SDS011;33568;45.286;9.900;2023-02-03T08:53:40;226.43;;;139.93;;
47804;SDS011;33568;45.286;9.900;2023-02-03T08:56:08;217.40;;;136.40;;
47804;SDS011;33568;45.286;9.900;2023-02-03T08:58:36;219.18;;;135.13;;
47804;SDS011;33568;45.286;9.900;2023-02-03T09:03:34;220.27;;;133.25;;
47804;SDS011;33568;45.286;9.900;2023-02-03T09:06:02;210.90;;;131.20;;
47804;SDS011;33568;45.286;9.900;2023-02-03T09:08:30;199.02;;;130.43;;
47804;SDS011;33568;45.286;9.900;2023-02-03T09:10:56;196.65;;;125.30;;
47804;SDS011;33568;45.286;9.900;2023-02-03T09:13:23;202.23;;;126.55;;
47804;SDS011;33568;45.286;9.900;2023-02-03T09:15:49;200.20;;;125.22;;
47804;SDS011;33568;45.286;9.900;2023-02-03T09:18:16;197.52;;;126.20;;
47804;SDS011;33568;45.286;9.900;2023-02-03T09:20:42;172.98;;;113.03;;
47804;SDS011;33568;45.286;9.900;2023-02-03T09:23:09;158.88;;;104.10;;
47804;SDS011;33568;45.286;9.900;2023-02-03T09:25:35;148.95;;;97.03;;
47804;SDS011;33568;45.286;9.900;2023-02-03T09:28:02;143.32;;;93.55;;
47804;SDS011;33568;45.286;9.900;2023-02-03T09:32:54;102.30;;;65.60;;
47804;SDS011;33568;45.286;9.900;2023-02-03T09:35:21;99.38;;;65.68;;
47804;SDS011;33568;45.286;9.900;2023-02-03T09:40:19;86.25;;;56.10;;
47804;SDS011;33568;45.286;9.900;2023-02-03T09:45:28;84.15;;;54.90;;
47804;SDS011;33568;45.286;9.900;2023-02-03T09:47:57;77.00;;;50.95;;
47804;SDS011;33568;45.286;9.900;2023-02-03T09:50:46;76.45;;;49.08;;
47804;SDS011;33568;45.286;9.900;2023-02-03T09:55:54;56.83;;;38.63;;
47804;SDS011;33568;45.286;9.900;2023-02-03T09:58:22;67.65;;;44.90;;
47804;SDS011;33568;45.286;9.900;2023-02-03T10:00:50;42.10;;;31.17;;
47804;SDS011;33568;45.286;9.900;2023-02-03T10:06:42;136.10;;;102.00;;
47804;SDS011;33568;45.286;9.900;2023-02-03T10:09:22;139.70;;;110.30;;
47804;SDS011;33568;45.286;9.900;2023-02-03T10:18:13;133.45;;;103.45;;
47804;SDS011;33568;45.286;9.900;2023-02-03T10:20:51;157.93;;;118.20;;
47804;SDS011;33568;45.286;9.900;2023-02-03T10:26:04;132.40;;;100.45;;
47804;SDS011;33568;45.286;9.900;2023-02-03T10:28:47;141.20;;;108.05;;
47804;SDS011;33568;45.286;9.900;2023-02-03T10:31:20;139.98;;;103.82;;
47804;SDS011;33568;45.286;9.900;2023-02-03T10:33:51;142.13;;;109.47;;
47804;SDS011;33568;45.286;9.900;2023-02-03T10:36:32;139.02;;;104.80;;
47804;SDS011;33568;45.286;9.900;2023-02-03T10:41:49;153.60;;;107.38;;
47804;SDS011;33568;45.286;9.900;2023-02-03T10:44:15;162.00;;;112.53;;
47804;SDS011;33568;45.286;9.900;2023-02-03T10:46:42;156.13;;;109.43;;
47804;SDS011;33568;45.286;9.900;2023-02-03T10:49:10;158.68;;;107.82;;
47804;SDS011;33568;45.286;9.900;2023-02-03T10:51:49;165.60;;;113.38;;
47804;SDS011;33568;45.286;9.900;2023-02-03T10:54:27;158.27;;;106.95;;
47804;SDS011;33568;45.286;9.900;2023-02-03T10:59:28;172.00;;;114.03;;
47804;SDS011;33568;45.286;9.900;2023-02-03T11:01:58;173.32;;;111.78;;
47804;SDS011;33568;45.286;9.900;2023-02-03T11:04:26;169.07;;;111.25;;
47804;SDS011;33568;45.286;9.900;2023-02-03T11:06:58;171.27;;;108.30;;
47804;SDS011;33568;45.286;9.900;2023-02-03T11:09:36;158.63;;;107.50;;
47804;SDS011;33568;45.286;9.900;2023-02-03T11:12:14;156.75;;;104.88;;
47804;SDS011;33568;45.286;9.900;2023-02-03T11:14:43;155.68;;;102.00;;
47804;SDS011;33568;45.286;9.900;2023-02-03T11:17:15;153.75;;;103.20;;
47804;SDS011;33568;45.286;9.900;2023-02-03T11:19:47;149.15;;;104.63;;
47804;SDS011;33568;45.286;9.900;2023-02-03T11:22:34;140.63;;;96.78;;
47804;SDS011;33568;45.286;9.900;2023-02-03T11:25:03;129.25;;;88.88;;
47804;SDS011;33568;45.286;9.900;2023-02-03T11:27:40;129.27;;;88.53;;
47804;SDS011;33568;45.286;9.900;2023-02-03T11:30:13;119.75;;;86.03;;
47804;SDS011;33568;45.286;9.900;2023-02-03T11:32:51;108.30;;;80.78;;
47804;SDS011;33568;45.286;9.900;2023-02-03T11:35:28;108.97;;;84.10;;
47804;SDS011;33568;45.286;9.900;2023-02-03T11:37:57;109.55;;;83.47;;
47804;SDS011;33568;45.286;9.900;2023-02-03T11:40:28;112.90;;;83.88;;
47804;SDS011;33568;45.286;9.900;2023-02-03T11:45:25;95.55;;;78.25;;
47804;SDS011;33568;45.286;9.900;2023-02-03T11:55:33;91.75;;;75.80;;
47804;SDS011;33568;45.286;9.900;2023-02-03T12:03:22;91.03;;;75.57;;
47804;SDS011;33568;45.286;9.900;2023-02-03T12:05:57;91.50;;;75.93;;
47804;SDS011;33568;45.286;9.900;2023-02-03T12:27:51;83.60;;;73.85;;
47804;SDS011;33568;45.286;9.900;2023-02-03T12:30:37;78.72;;;69.47;;
47804;SDS011;33568;45.286;9.900;2023-02-03T12:33:22;81.97;;;69.85;;
47804;SDS011;33568;45.286;9.900;2023-02-03T12:35:58;80.72;;;68.30;;
47804;SDS011;33568;45.286;9.900;2023-02-03T12:41:06;84.82;;;71.93;;
47804;SDS011;33568;45.286;9.900;2023-02-03T12:43:48;83.97;;;73.38;;
47804;SDS011;33568;45.286;9.900;2023-02-03T12:46:20;86.72;;;70.07;;
47804;SDS011;33568;45.286;9.900;2023-02-03T12:49:12;87.20;;;72.53;;
47804;SDS011;33568;45.286;9.900;2023-02-03T12:51:45;85.32;;;71.05;;
47804;SDS011;33568;45.286;9.900;2023-02-03T12:56:48;86.03;;;69.03;;
47804;SDS011;33568;45.286;9.900;2023-02-03T12:59:22;89.85;;;69.28;;
47804;SDS011;33568;45.286;9.900;2023-02-03T13:01:57;91.30;;;70.22;;
47804;SDS011;33568;45.286;9.900;2023-02-03T13:04:36;87.30;;;69.22;;
47804;SDS011;33568;45.286;9.900;2023-02-03T13:07:23;85.47;;;68.05;;
47804;SDS011;33568;45.286;9.900;2023-02-03T13:13:43;90.28;;;64.00;;
47804;SDS011;33568;45.286;9.900;2023-02-03T13:16:14;79.65;;;62.03;;
47804;SDS011;33568;45.286;9.900;2023-02-03T13:18:49;77.45;;;60.83;;
47804;SDS011;33568;45.286;9.900;2023-02-03T13:21:20;78.97;;;62.13;;
47804;SDS011;33568;45.286;9.900;2023-02-03T13:23:48;79.78;;;61.05;;
47804;SDS011;33568;45.286;9.900;2023-02-03T13:26:30;81.32;;;63.33;;
47804;SDS011;33568;45.286;9.900;2023-02-03T13:34:45;76.05;;;57.70;;
47804;SDS011;33568;45.286;9.900;2023-02-03T13:40:39;80.18;;;57.70;;
47804;SDS011;33568;45.286;9.900;2023-02-03T13:43:17;73.82;;;56.08;;
47804;SDS011;33568;45.286;9.900;2023-02-03T13:45:51;76.70;;;56.42;;
47804;SDS011;33568;45.286;9.900;2023-02-03T13:48:35;61.92;;;46.00;;
47804;SDS011;33568;45.286;9.900;2023-02-03T13:51:04;34.45;;;26.60;;
47804;SDS011;33568;45.286;9.900;2023-02-03T13:53:49;31.70;;;19.45;;
47804;SDS011;33568;45.286;9.900;2023-02-03T13:56:20;23.08;;;18.00;;
47804;SDS011;33568;45.286;9.900;2023-02-03T13:59:05;28.80;;;17.95;;
47804;SDS011;33568;45.286;9.900;2023-02-03T14:02:28;26.20;;;18.85;;
47804;SDS011;33568;45.286;9.900;2023-02-03T14:04:50;29.55;;;20.92;;
47804;SDS011;33568;45.286;9.900;2023-02-03T14:22:52;22.45;;;17.15;;
47804;SDS011;33568;45.286;9.900;2023-02-03T14:25:41;25.67;;;16.77;;
47804;SDS011;33568;45.286;9.900;2023-02-03T14:28:15;24.90;;;17.88;;
47804;SDS011;33568;45.286;9.900;2023-02-03T14:31:03;26.00;;;18.10;;
47804;SDS011;33568;45.286;9.900;2023-02-03T14:38:58;32.60;;;18.02;;
47804;SDS011;33568;45.286;9.900;2023-02-03T14:44:18;25.85;;;18.65;;
47804;SDS011;33568;45.286;9.900;2023-02-03T14:52:02;27.90;;;19.55;;
47804;SDS011;33568;45.286;9.900;2023-02-03T14:54:58;30.15;;;19.58;;
47804;SDS011;33568;45.286;9.900;2023-02-03T14:57:34;29.52;;;18.52;;
47804;SDS011;33568;45.286;9.900;2023-02-03T15:05:40;30.95;;;20.48;;
47804;SDS011;33568;45.286;9.900;2023-02-03T15:11:26;36.10;;;19.80;;
47804;SDS011;33568;45.286;9.900;2023-02-03T15:13:56;27.80;;;20.42;;
47804;SDS011;33568;45.286;9.900;2023-02-03T15:16:41;74.55;;;49.60;;
47804;SDS011;33568;45.286;9.900;2023-02-03T15:19:14;86.85;;;61.78;;
47804;SDS011;33568;45.286;9.900;2023-02-03T15:21:43;103.25;;;71.40;;
47804;SDS011;33568;45.286;9.900;2023-02-03T15:24:14;96.45;;;69.18;;
47804;SDS011;33568;45.286;9.900;2023-02-03T15:26:44;109.63;;;73.78;;
47804;SDS011;33568;45.286;9.900;2023-02-03T15:29:28;134.82;;;90.45;;
47804;SDS011;33568;45.286;9.900;2023-02-03T15:32:03;103.72;;;71.95;;
47804;SDS011;33568;45.286;9.900;2023-02-03T15:34:39;102.07;;;70.47;;
47804;SDS011;33568;45.286;9.900;2023-02-03T15:37:44;102.88;;;72.45;;
47804;SDS011;33568;45.286;9.900;2023-02-03T15:46:08;114.60;;;76.80;;
47804;SDS011;33568;45.286;9.900;2023-02-03T15:51:39;110.93;;;73.18;;
47804;SDS011;33568;45.286;9.900;2023-02-03T15:54:23;111.00;;;76.32;;
47804;SDS011;33568;45.286;9.900;2023-02-03T15:57:07;114.15;;;78.93;;
47804;SDS011;33568;45.286;9.900;2023-02-03T15:59:40;112.85;;;74.28;;
47804;SDS011;33568;45.286;9.900;2023-02-03T16:04:37;130.70;;;82.93;;
47804;SDS011;33568;45.286;9.900;2023-02-03T16:07:03;126.13;;;82.13;;
47804;SDS011;33568;45.286;9.900;2023-02-03T16:09:39;135.02;;;86.15;;
47804;SDS011;33568;45.286;9.900;2023-02-03T16:14:46;120.65;;;78.88;;
47804;SDS011;33568;45.286;9.900;2023-02-03T16:22:44;128.13;;;83.65;;
47804;SDS011;33568;45.286;9.900;2023-02-03T16:25:25;123.03;;;81.53;;
47804;SDS011;33568;45.286;9.900;2023-02-03T16:27:54;151.23;;;93.55;;
47804;SDS011;33568;45.286;9.900;2023-02-03T16:30:57;142.65;;;89.20;;
47804;SDS011;33568;45.286;9.900;2023-02-03T16:33:45;154.00;;;95.07;;
47804;SDS011;33568;45.286;9.900;2023-02-03T16:36:32;105.10;;;73.05;;
47804;SDS011;33568;45.286;9.900;2023-02-03T16:39:16;105.32;;;70.57;;
47804;SDS011;33568;45.286;9.900;2023-02-03T16:42:06;112.03;;;76.30;;
47804;SDS011;33568;45.286;9.900;2023-02-03T16:44:57;101.85;;;70.40;;
47804;SDS011;33568;45.286;9.900;2023-02-03T16:47:42;110.95;;;70.70;;
47804;SDS011;33568;45.286;9.900;2023-02-03T16:50:28;101.80;;;70.13;;
47804;SDS011;33568;45.286;9.900;2023-02-03T16:53:17;115.47;;;71.97;;
47804;SDS011;33568;45.286;9.900;2023-02-03T16:55:46;101.15;;;71.70;;
47804;SDS011;33568;45.286;9.900;2023-02-03T16:58:14;112.78;;;78.70;;
47804;SDS011;33568;45.286;9.900;2023-02-03T17:00:42;132.77;;;85.72;;
47804;SDS011;33568;45.286;9.900;2023-02-03T17:03:14;143.93;;;90.60;;
47804;SDS011;33568;45.286;9.900;2023-02-03T17:05:43;129.48;;;88.68;;
47804;SDS011;33568;45.286;9.900;2023-02-03T17:08:11;121.07;;;79.93;;
47804;SDS011;33568;45.286;9.900;2023-02-03T17:10:38;109.95;;;74.95;;
47804;SDS011;33568;45.286;9.900;2023-02-03T17:13:06;104.90;;;73.70;;
47804;SDS011;33568;45.286;9.900;2023-02-03T17:15:43;106.13;;;73.93;;
47804;SDS011;33568;45.286;9.900;2023-02-03T17:18:11;116.93;;;81.70;;
47804;SDS011;33568;45.286;9.900;2023-02-03T17:20:42;119.53;;;80.25;;
47804;SDS011;33568;45.286;9.900;2023-02-03T17:23:10;113.63;;;77.32;;
47804;SDS011;33568;45.286;9.900;2023-02-03T17:25:37;113.07;;;72.30;;
47804;SDS011;33568;45.286;9.900;2023-02-03T17:28:05;121.57;;;78.90;;
47804;SDS011;33568;45.286;9.900;2023-02-03T17:30:32;104.55;;;72.85;;
47804;SDS011;33568;45.286;9.900;2023-02-03T17:33:00;115.20;;;73.78;;
47804;SDS011;33568;45.286;9.900;2023-02-03T17:35:28;108.38;;;70.15;;
47804;SDS011;33568;45.286;9.900;2023-02-03T17:37:54;111.53;;;74.93;;
47804;SDS011;33568;45.286;9.900;2023-02-03T17:40:20;110.80;;;71.53;;
47804;SDS011;33568;45.286;9.900;2023-02-03T17:42:47;107.72;;;71.85;;
47804;SDS011;33568;45.286;9.900;2023-02-03T17:45:13;109.50;;;71.38;;
47804;SDS011;33568;45.286;9.900;2023-02-03T17:50:06;139.13;;;92.82;;
47804;SDS011;33568;45.286;9.900;2023-02-03T17:54:59;116.22;;;78.10;;
47804;SDS011;33568;45.286;9.900;2023-02-03T17:57:25;125.75;;;83.40;;
47804;SDS011;33568;45.286;9.900;2023-02-03T17:59:52;112.40;;;78.88;;
47804;SDS011;33568;45.286;9.900;2023-02-03T18:02:20;115.53;;;78.78;;
47804;SDS011;33568;45.286;9.900;2023-02-03T18:04:47;120.57;;;76.25;;
47804;SDS011;33568;45.286;9.900;2023-02-03T18:07:13;121.53;;;78.30;;
47804;SDS011;33568;45.286;9.900;2023-02-03T18:09:39;126.82;;;77.97;;
47804;SDS011;33568;45.286;9.900;2023-02-03T18:12:06;117.18;;;75.75;;
47804;SDS011;33568;45.286;9.900;2023-02-03T18:16:59;117.90;;;80.70;;
47804;SDS011;33568;45.286;9.900;2023-02-03T18:19:25;132.63;;;85.88;;
47804;SDS011;33568;45.286;9.900;2023-02-03T18:21:52;132.75;;;89.60;;
47804;SDS011;33568;45.286;9.900;2023-02-03T18:24:18;137.75;;;95.00;;
47804;SDS011;33568;45.286;9.900;2023-02-03T18:26:48;186.80;;;128.18;;
47804;SDS011;33568;45.286;9.900;2023-02-03T18:29:16;217.80;;;150.65;;
47804;SDS011;33568;45.286;9.900;2023-02-03T18:31:42;115.43;;;77.25;;
47804;SDS011;33568;45.286;9.900;2023-02-03T18:34:09;109.88;;;73.38;;
47804;SDS011;33568;45.286;9.900;2023-02-03T18:36:35;123.85;;;78.95;;
47804;SDS011;33568;45.286;9.900;2023-02-03T18:41:28;135.77;;;83.32;;